This is the latest recevied weather packets stored in our database for station/object DJ2KUA-6. If no packets are shown the sender has not sent any weather packets the latest 10 day(s).
| Time | Temp. | Humidity | Pressure | Rain* | Wind** | Luminosity | Snow |
|---|---|---|---|---|---|---|---|
| 1777607253 | 5.56° C | 57% | 1079 hPa | 0 mm | - | - | - |
| 1777606113 | 6.11° C | 55% | 1079 hPa | 0 mm | - | - | - |
| 1777604974 | 6.67° C | 53% | 1079 hPa | 0 mm | - | - | - |
| 1777602690 | 8.33° C | 48% | 1079 hPa | 0 mm | - | - | - |
| 1777601716 | 7.78° C | 49% | 1078 hPa | 0 mm | - | - | - |
| 1777601552 | 7.78° C | 49% | 1078 hPa | 0 mm | - | - | - |
| 1777599354 | 7.78° C | 51% | 1078 hPa | 0 mm | - | - | - |
| 1777599273 | 7.78° C | 51% | 1078 hPa | 0 mm | - | - | - |
| 1777598132 | 7.78° C | 50% | 1079 hPa | 0 mm | - | - | - |
| 1777595853 | 8.33° C | 46% | 1079 hPa | 0 mm | - | - | - |
| 1777594711 | 8.89° C | 45% | 1078 hPa | 0 mm | - | - | - |
| 1777593571 | 10° C | 41% | 1078 hPa | 0 mm | - | - | - |
| 1777592431 | 10.56° C | 40% | 1078 hPa | 0 mm | - | - | - |
| 1777590150 | 11.11° C | 38% | 1078 hPa | 0 mm | - | - | - |
| 1777589010 | 11.11° C | 36% | 1078 hPa | 0 mm | - | - | - |
| 1777587873 | 11.67° C | 36% | 1078 hPa | 0 mm | - | - | - |
| 1777586730 | 11.11° C | 38% | 1078 hPa | 0 mm | - | - | - |
| 1777585593 | 11.11° C | 39% | 1078 hPa | 0 mm | - | - | - |
| 1777584452 | 11.67° C | 38% | 1078 hPa | 0 mm | - | - | - |
| 1777583312 | 12.22° C | 37% | 1078 hPa | 0 mm | - | - | - |
| 1777582172 | 12.22° C | 36% | 1078 hPa | 0 mm | - | - | - |
| 1777581030 | 12.78° C | 36% | 1078 hPa | 0 mm | - | - | - |
| 1777579891 | 12.78° C | 34% | 1078 hPa | 0 mm | - | - | - |
| 1777578752 | 13.33° C | 33% | 1078 hPa | 0 mm | - | - | - |
| 1777577614 | 13.89° C | 32% | 1077 hPa | 0 mm | - | - | - |
* Rain latest hour (hover to see other rain measurements)
** Current wind speed in m/s (hover to see current wind gust speed)